Time;durP1;ratioP1;P1;durP2;ratioP2;P2;SDS_P1;SDS_P2;PMS_P1;PMS_P2;Temp;Humidity;BMP_temperature;BMP_pressure;BME280_temperature;BME280_humidity;BME280_pressure;Samples;Min_cycle;Max_cycle;Signal;HPM_P1;HPM_P2
2021/08/15 00:02:17;;;;;;;1.65;1.52;;;23.30;99.90;;;;;;5069204;28;20166;-75
2021/08/15 00:04:43;;;;;;;1.58;1.48;;;23.20;99.90;;;;;;5067568;28;20207;-74
2021/08/15 00:07:09;;;;;;;0.82;0.82;;;23.20;99.90;;;;;;5067625;28;20730;-74
2021/08/15 00:09:35;;;;;;;1.40;1.30;;;23.20;99.90;;;;;;5068956;28;20188;-74
2021/08/15 00:12:04;;;;;;;0.85;0.85;;;23.10;99.90;;;;;;5069072;28;20167;-74
2021/08/15 00:14:30;;;;;;;0.85;0.85;;;23.20;99.90;;;;;;5068914;28;20195;-74
2021/08/15 00:16:56;;;;;;;1.55;1.17;;;23.30;99.90;;;;;;5068904;28;20165;-75
2021/08/15 00:19:22;;;;;;;1.08;0.93;;;23.40;99.90;;;;;;5068845;28;20522;-74
2021/08/15 00:21:48;;;;;;;1.58;1.23;;;23.30;99.90;;;;;;5068905;28;20163;-74
2021/08/15 00:24:14;;;;;;;2.20;2.08;;;23.10;99.90;;;;;;5067331;28;20233;-74
2021/08/15 00:26:40;;;;;;;0.65;0.55;;;23.00;99.90;;;;;;5068741;28;20186;-74
2021/08/15 00:29:05;;;;;;;0.75;0.75;;;23.20;99.90;;;;;;5067413;28;20283;-74
2021/08/15 00:31:32;;;;;;;1.05;0.95;;;23.20;99.90;;;;;;5067938;28;20160;-74
2021/08/15 00:34:00;;;;;;;3.88;1.35;;;22.80;99.90;;;;;;5068586;28;20245;-74
2021/08/15 00:36:27;;;;;;;29.27;1.40;;;22.60;99.90;;;;;;5068661;28;20179;-74
2021/08/15 00:38:52;;;;;;;2.47;2.20;;;22.60;99.90;;;;;;5067155;28;20196;-74
2021/08/15 00:41:18;;;;;;;2.10;1.80;;;22.70;99.90;;;;;;5067171;28;20164;-74
2021/08/15 00:43:44;;;;;;;0.80;0.80;;;22.90;99.90;;;;;;5067034;28;20242;-75
2021/08/15 00:46:12;;;;;;;0.98;0.98;;;22.90;99.90;;;;;;5068424;28;20181;-75
2021/08/15 00:48:39;;;;;;;2.47;2.22;;;22.90;99.90;;;;;;5068104;28;20267;-74
2021/08/15 00:51:07;;;;;;;0.98;0.63;;;22.90;99.90;;;;;;5068355;28;20191;-75
2021/08/15 00:53:35;;;;;;;4.03;1.67;;;22.90;99.90;;;;;;5066957;28;20556;-74
2021/08/15 00:56:02;;;;;;;0.77;0.73;;;23.00;99.90;;;;;;5066826;28;20160;-75
2021/08/15 00:58:31;;;;;;;1.80;1.70;;;23.00;99.90;;;;;;5066975;28;20164;-74
2021/08/15 01:01:01;;;;;;;0.43;0.43;;;22.90;99.90;;;;;;5068174;28;20171;-74
2021/08/15 01:03:29;;;;;;;1.95;1.23;;;23.00;99.90;;;;;;5068121;28;20190;-74
2021/08/15 01:05:55;;;;;;;2.08;1.35;;;23.10;99.90;;;;;;5068136;28;20190;-74
2021/08/15 01:08:22;;;;;;;1.45;1.35;;;23.10;99.90;;;;;;5068191;28;20152;-74
2021/08/15 01:10:47;;;;;;;1.55;1.45;;;23.20;99.90;;;;;;5068042;28;20290;-74
2021/08/15 01:13:13;;;;;;;1.60;0.52;;;23.20;99.90;;;;;;5068024;28;20191;-75
2021/08/15 01:15:39;;;;;;;4.13;1.35;;;23.10;99.90;;;;;;5068232;28;20272;-74
2021/08/15 01:18:23;;;;;;;0.88;0.80;;;23.00;99.90;;;;;;5068311;28;20167;-73
2021/08/15 01:20:56;;;;;;;0.50;0.50;;;23.10;99.90;;;;;;5066528;28;20167;-73
2021/08/15 01:23:22;;;;;;;1.00;1.00;;;23.20;99.90;;;;;;5067919;28;20206;-74
2021/08/15 01:25:48;;;;;;;2.85;2.17;;;23.30;99.90;;;;;;5066783;28;20164;-73
2021/08/15 01:28:19;;;;;;;1.08;1.05;;;23.30;99.90;;;;;;5068024;28;20583;-73
2021/08/15 01:30:46;;;;;;;1.80;1.70;;;23.30;99.90;;;;;;5067933;28;20192;-73
2021/08/15 01:33:30;;;;;;;1.02;1.02;;;23.30;99.90;;;;;;5067967;28;20274;-74
2021/08/15 01:35:57;;;;;;;0.85;0.85;;;23.20;99.90;;;;;;5067989;28;20211;-74
2021/08/15 01:38:27;;;;;;;0.95;0.95;;;23.20;99.90;;;;;;5067951;28;20148;-74
2021/08/15 01:40:54;;;;;;;2.20;0.95;;;23.10;99.90;;;;;;5066396;28;20223;-74
2021/08/15 01:43:21;;;;;;;1.55;1.17;;;23.00;99.90;;;;;;5069105;28;20268;-74
2021/08/15 01:45:47;;;;;;;1.67;1.58;;;23.10;99.90;;;;;;5071743;28;20161;-74
2021/08/15 01:48:13;;;;;;;1.33;1.23;;;23.20;99.90;;;;;;5070259;28;20224;-74
2021/08/15 01:50:40;;;;;;;0.77;0.73;;;23.30;99.90;;;;;;5071642;28;20238;-74
2021/08/15 01:53:08;;;;;;;0.50;0.40;;;23.30;99.90;;;;;;5071521;28;20213;-74
2021/08/15 01:55:34;;;;;;;0.95;0.77;;;23.40;99.90;;;;;;5071619;28;20167;-74
2021/08/15 01:58:00;;;;;;;0.63;0.60;;;23.30;99.90;;;;;;5071665;28;20156;-74
2021/08/15 02:00:26;;;;;;;0.60;0.60;;;23.20;99.90;;;;;;5070158;28;20218;-74
2021/08/15 02:02:52;;;;;;;0.63;0.63;;;23.30;99.90;;;;;;5070107;28;20167;-74
2021/08/15 02:05:20;;;;;;;1.70;0.85;;;23.30;99.90;;;;;;5071521;28;20164;-74
2021/08/15 02:07:47;;;;;;;0.35;0.35;;;23.40;99.90;;;;;;5070213;28;20172;-74
2021/08/15 02:10:14;;;;;;;1.52;1.23;;;23.30;99.90;;;;;;5071176;28;20211;-74
2021/08/15 02:12:40;;;;;;;1.17;1.13;;;23.10;99.90;;;;;;5069955;28;20214;-74
2021/08/15 02:15:07;;;;;;;1.75;1.55;;;23.00;99.90;;;;;;5071246;28;20164;-74
2021/08/15 02:17:33;;;;;;;0.85;0.85;;;23.20;99.90;;;;;;5071253;28;20187;-74
2021/08/15 02:19:59;;;;;;;0.57;0.50;;;23.10;99.90;;;;;;5071303;28;20160;-74
2021/08/15 02:22:25;;;;;;;0.98;0.75;;;23.00;99.90;;;;;;5071165;28;20160;-74
2021/08/15 02:24:51;;;;;;;1.75;1.65;;;23.00;99.90;;;;;;5070940;28;20192;-73
2021/08/15 02:27:17;;;;;;;2.22;1.35;;;23.00;99.90;;;;;;5069587;28;20231;-73
2021/08/15 02:29:43;;;;;;;2.45;1.77;;;22.90;99.90;;;;;;5069546;28;20230;-74
2021/08/15 02:32:09;;;;;;;1.65;1.55;;;22.90;99.90;;;;;;5070912;28;20282;-73
2021/08/15 02:34:34;;;;;;;1.20;0.60;;;22.90;99.90;;;;;;5070892;28;20206;-74
2021/08/15 02:37:00;;;;;;;2.53;2.15;;;23.00;99.90;;;;;;5070767;28;20152;-73
2021/08/15 02:39:26;;;;;;;1.63;1.52;;;22.90;99.90;;;;;;5070756;28;20164;-73
2021/08/15 02:41:52;;;;;;;1.20;0.88;;;22.90;99.90;;;;;;5069794;28;20179;-75
2021/08/15 02:44:18;;;;;;;1.35;1.25;;;22.80;99.90;;;;;;5067212;28;20227;-75
2021/08/15 02:46:44;;;;;;;1.55;1.45;;;22.80;99.90;;;;;;5070583;28;20183;-75
2021/08/15 02:49:10;;;;;;;1.23;1.13;;;22.80;99.90;;;;;;5070134;28;20271;-75
2021/08/15 02:51:36;;;;;;;1.35;1.25;;;22.80;99.90;;;;;;5070800;28;20148;-75
2021/08/15 02:54:02;;;;;;;4.68;2.78;;;22.70;99.90;;;;;;5068410;28;20195;-75
2021/08/15 02:56:27;;;;;;;1.58;1.48;;;22.70;99.90;;;;;;5070547;28;20178;-74
2021/08/15 02:58:53;;;;;;;2.53;1.00;;;22.60;99.90;;;;;;5070673;28;20184;-75
2021/08/15 03:01:19;;;;;;;0.90;0.90;;;22.60;99.90;;;;;;5070385;28;20228;-74
2021/08/15 03:03:45;;;;;;;0.50;0.50;;;22.50;99.90;;;;;;5070189;28;20188;-75
2021/08/15 03:06:11;;;;;;;1.20;0.52;;;22.50;99.90;;;;;;5068892;28;20175;-74
2021/08/15 03:08:37;;;;;;;1.05;1.02;;;22.50;99.90;;;;;;5070324;28;20161;-74
2021/08/15 03:11:03;;;;;;;0.60;0.60;;;22.40;99.90;;;;;;5069025;28;20180;-74
2021/08/15 03:13:29;;;;;;;0.68;0.60;;;22.20;99.90;;;;;;5070069;28;20268;-75
2021/08/15 03:15:55;;;;;;;3.10;1.75;;;22.30;99.90;;;;;;5070168;28;20148;-74
2021/08/15 03:18:21;;;;;;;1.33;1.17;;;22.00;99.90;;;;;;5069957;28;20155;-76
2021/08/15 03:20:47;;;;;;;1.05;1.00;;;22.00;99.90;;;;;;5070088;28;20224;-75
2021/08/15 03:23:13;;;;;;;1.15;1.13;;;21.90;99.90;;;;;;5068687;28;20196;-75
2021/08/15 03:25:39;;;;;;;2.92;1.70;;;21.80;99.90;;;;;;5070069;28;20161;-73
2021/08/15 03:28:06;;;;;;;2.15;1.25;;;21.90;99.90;;;;;;5068498;28;20206;-72
2021/08/15 03:30:33;;;;;;;0.88;0.88;;;22.20;99.90;;;;;;5068407;28;20192;-74
2021/08/15 03:32:59;;;;;;;0.90;0.90;;;22.40;99.90;;;;;;5068477;28;20160;-74
2021/08/15 03:35:26;;;;;;;2.15;2.05;;;22.40;99.90;;;;;;5068483;28;20168;-74
2021/08/15 03:37:52;;;;;;;1.83;1.70;;;22.50;99.90;;;;;;5069753;28;20149;-73
2021/08/15 03:40:18;;;;;;;0.88;0.88;;;22.40;99.90;;;;;;5068166;28;20182;-73
2021/08/15 03:42:44;;;;;;;3.25;1.58;;;22.30;99.90;;;;;;5068124;28;20168;-74
2021/08/15 03:45:10;;;;;;;3.88;1.70;;;22.40;99.90;;;;;;5069514;28;20164;-74
2021/08/15 03:47:37;;;;;;;1.80;0.85;;;22.40;99.90;;;;;;5067901;28;20624;-74
2021/08/15 03:50:06;;;;;;;1.38;1.13;;;22.50;99.90;;;;;;5069441;28;20192;-74
2021/08/15 03:52:42;;;;;;;1.60;1.27;;;22.40;99.90;;;;;;5069574;28;20159;-73
2021/08/15 03:55:11;;;;;;;1.13;1.10;;;22.30;99.90;;;;;;5069310;28;20171;-73
2021/08/15 03:57:42;;;;;;;3.10;2.03;;;22.30;99.90;;;;;;5069591;28;20653;-74
2021/08/15 04:00:08;;;;;;;2.25;1.08;;;22.40;99.90;;;;;;5068075;28;20175;-74
2021/08/15 04:02:34;;;;;;;1.63;1.20;;;22.30;99.90;;;;;;5068027;28;20206;-74
2021/08/15 04:05:00;;;;;;;1.10;1.10;;;22.30;99.90;;;;;;5067743;28;20196;-74
2021/08/15 04:07:27;;;;;;;2.85;2.08;;;22.20;99.90;;;;;;5068446;28;20248;-74
2021/08/15 04:09:52;;;;;;;4.60;1.80;;;22.20;99.90;;;;;;5067815;28;20199;-76
2021/08/15 04:12:18;;;;;;;3.75;2.17;;;22.10;99.90;;;;;;5067812;28;20184;-73
2021/08/15 04:14:44;;;;;;;1.60;1.48;;;22.10;99.90;;;;;;5067766;28;20200;-74
2021/08/15 04:17:10;;;;;;;1.33;1.23;;;22.10;99.90;;;;;;5069030;28;20166;-74
2021/08/15 04:19:36;;;;;;;2.58;1.67;;;22.00;99.90;;;;;;5068855;28;20167;-75
2021/08/15 04:22:02;;;;;;;1.65;1.55;;;22.00;99.90;;;;;;5067491;28;20290;-74
2021/08/15 04:24:28;;;;;;;3.03;1.55;;;22.00;99.90;;;;;;5068646;28;20276;-74
2021/08/15 04:26:54;;;;;;;7.95;2.13;;;22.00;99.90;;;;;;5068742;28;20160;-74
2021/08/15 04:29:20;;;;;;;4.72;1.08;;;22.00;99.90;;;;;;5068574;28;20203;-74
2021/08/15 04:31:46;;;;;;;1.60;1.50;;;21.90;99.90;;;;;;5068739;28;20163;-74
2021/08/15 04:34:11;;;;;;;1.65;1.55;;;22.00;99.90;;;;;;5067310;28;20178;-75
2021/08/15 04:36:37;;;;;;;1.55;1.23;;;22.20;99.90;;;;;;5067313;28;20179;-75
2021/08/15 04:39:04;;;;;;;0.90;0.85;;;22.30;99.90;;;;;;5067127;28;20255;-75
2021/08/15 04:41:30;;;;;;;0.98;0.90;;;22.40;99.90;;;;;;5068561;28;20167;-74
2021/08/15 04:43:56;;;;;;;1.35;1.25;;;22.60;99.90;;;;;;5068445;28;20160;-74
2021/08/15 04:46:22;;;;;;;1.17;1.17;;;22.60;99.90;;;;;;5067093;28;20176;-75
2021/08/15 04:48:47;;;;;;;0.98;0.98;;;22.60;99.90;;;;;;5068059;28;20223;-76
2021/08/15 04:51:13;;;;;;;1.30;1.17;;;22.80;99.90;;;;;;5068427;28;20160;-74
2021/08/15 04:53:39;;;;;;;0.95;0.90;;;23.10;99.90;;;;;;5066975;28;20164;-74
2021/08/15 04:56:05;;;;;;;3.30;2.60;;;23.50;99.90;;;;;;5068314;28;20178;-74
2021/08/15 04:58:31;;;;;;;1.27;1.20;;;24.10;99.90;;;;;;5067013;28;20161;-74
2021/08/15 05:00:57;;;;;;;0.57;0.57;;;24.60;99.90;;;;;;5068262;28;20242;-74
2021/08/15 05:03:23;;;;;;;0.80;0.80;;;24.90;99.90;;;;;;5067015;28;20227;-75
2021/08/15 05:05:49;;;;;;;1.67;1.58;;;25.20;99.90;;;;;;5067048;28;20168;-75
2021/08/15 05:08:15;;;;;;;0.77;0.77;;;25.20;99.90;;;;;;5066856;28;20164;-75
2021/08/15 05:10:42;;;;;;;1.30;1.30;;;25.50;99.90;;;;;;5068049;28;20200;-75
2021/08/15 05:13:09;;;;;;;0.52;0.52;;;25.80;99.90;;;;;;5067039;28;20171;-75
2021/08/15 05:15:35;;;;;;;3.35;1.15;;;26.10;99.90;;;;;;5067022;28;20164;-75
2021/08/15 05:18:02;;;;;;;1.00;0.98;;;26.10;99.90;;;;;;5070241;28;20210;-75
2021/08/15 05:20:30;;;;;;;1.65;1.38;;;26.10;99.90;;;;;;5071905;28;20266;-75
2021/08/15 05:22:57;;;;;;;1.60;1.50;;;26.10;99.90;;;;;;5070990;28;20195;-75
2021/08/15 05:25:24;;;;;;;0.85;0.85;;;25.90;99.90;;;;;;5072215;28;20156;-75
2021/08/15 05:27:50;;;;;;;1.63;1.38;;;25.90;99.90;;;;;;5072111;28;20160;-75
2021/08/15 05:30:16;;;;;;;1.20;1.10;;;26.00;99.90;;;;;;5070595;28;20223;-75
2021/08/15 05:32:42;;;;;;;0.85;0.70;;;26.20;99.90;;;;;;5070783;28;20168;-75
2021/08/15 05:35:10;;;;;;;1.55;1.45;;;26.60;99.90;;;;;;5070595;28;20194;-74
2021/08/15 05:37:39;;;;;;;1.45;1.35;;;26.30;99.90;;;;;;5071842;28;20214;-73
2021/08/15 05:40:06;;;;;;;1.65;1.23;;;25.60;99.90;;;;;;5070282;28;20203;-74
2021/08/15 05:42:32;;;;;;;1.40;1.30;;;25.60;99.90;;;;;;5070224;28;20168;-77
2021/08/15 05:44:58;;;;;;;2.88;1.08;;;25.80;99.90;;;;;;5071861;28;20182;-76
2021/08/15 05:47:24;;;;;;;1.80;1.27;;;26.30;99.90;;;;;;5069962;28;20176;-76
2021/08/15 05:49:49;;;;;;;0.93;0.93;;;26.60;99.90;;;;;;5071485;28;20207;-74
2021/08/15 05:52:16;;;;;;;1.38;1.27;;;26.50;99.90;;;;;;5070117;28;20168;-74
2021/08/15 05:54:42;;;;;;;1.38;1.27;;;26.00;99.90;;;;;;5070121;28;20188;-74
2021/08/15 05:57:08;;;;;;;2.67;1.58;;;25.70;99.90;;;;;;5070028;28;20164;-74
2021/08/15 05:59:35;;;;;;;2.38;2.17;;;25.80;99.90;;;;;;5069795;28;20200;-74
2021/08/15 06:02:03;;;;;;;1.70;1.27;;;25.50;99.90;;;;;;5071224;28;20224;-74
2021/08/15 06:04:29;;;;;;;1.55;1.50;;;25.40;99.90;;;;;;5071580;28;20179;-77
2021/08/15 06:06:55;;;;;;;1.45;0.70;;;25.20;99.90;;;;;;5071272;28;20204;-75
2021/08/15 06:09:21;;;;;;;1.58;1.40;;;25.60;99.90;;;;;;5071007;28;20263;-76
2021/08/15 06:11:47;;;;;;;1.15;1.15;;;26.90;99.90;;;;;;5071183;28;20161;-76
2021/08/15 06:14:16;;;;;;;1.27;1.00;;;27.70;99.90;;;;;;5069959;28;20172;-76
2021/08/15 06:16:43;;;;;;;1.05;1.00;;;27.30;99.90;;;;;;5071142;28;20172;-76
2021/08/15 06:19:10;;;;;;;0.95;0.95;;;26.80;99.90;;;;;;5069638;28;20296;-76
2021/08/15 06:21:36;;;;;;;0.70;0.70;;;27.60;99.90;;;;;;5069965;28;20172;-74
2021/08/15 06:24:02;;;;;;;8.23;1.55;;;28.70;99.90;;;;;;5069607;28;20172;-76
2021/08/15 06:26:29;;;;;;;3.70;1.63;;;28.90;99.90;;;;;;5059665;28;20207;-76
2021/08/15 06:28:55;;;;;;;2.70;2.03;;;29.60;99.90;;;;;;5054482;28;20243;-76
2021/08/15 06:31:22;;;;;;;1.75;0.95;;;29.70;99.90;;;;;;5053167;28;20181;-76
2021/08/15 06:33:48;;;;;;;1.00;1.00;;;29.30;99.90;;;;;;5049209;28;20157;-78
2021/08/15 06:36:14;;;;;;;3.05;1.52;;;29.60;99.90;;;;;;5050640;28;20169;-75
2021/08/15 06:38:40;;;;;;;1.23;1.10;;;29.80;99.90;;;;;;5050440;28;20160;-75
2021/08/15 06:41:08;;;;;;;1.05;1.05;;;29.90;99.90;;;;;;5049269;28;20591;-75
2021/08/15 06:43:34;;;;;;;2.90;0.90;;;29.50;99.90;;;;;;5049026;28;20169;-75
2021/08/15 06:46:00;;;;;;;1.75;1.65;;;29.00;99.90;;;;;;5049180;28;20165;-74
2021/08/15 06:48:26;;;;;;;0.60;0.38;;;29.80;99.90;;;;;;5048786;28;20217;-78
2021/08/15 06:50:54;;;;;;;0.82;0.75;;;29.10;99.90;;;;;;5048655;28;20323;-77
2021/08/15 06:53:21;;;;;;;0.30;0.30;;;27.80;99.90;;;;;;5049575;28;20196;-79
2021/08/15 06:55:48;;;;;;;0.90;0.90;;;27.30;99.90;;;;;;5051266;28;20157;-79
2021/08/15 06:58:15;;;;;;;1.00;0.80;;;27.40;99.90;;;;;;5051387;28;20163;-78
2021/08/15 07:00:41;;;;;;;3.45;1.60;;;27.40;99.90;;;;;;5049827;28;20208;-78
2021/08/15 07:03:07;;;;;;;1.42;1.00;;;27.30;99.90;;;;;;5050165;28;20206;-79
2021/08/15 07:05:33;;;;;;;1.33;1.23;;;28.50;99.90;;;;;;5050403;28;20184;-79
2021/08/15 07:07:59;;;;;;;1.30;1.25;;;28.50;99.90;;;;;;5050068;28;20164;-79
2021/08/15 07:10:25;;;;;;;0.93;0.73;;;28.40;99.90;;;;;;5050045;28;20293;-78
2021/08/15 07:12:55;;;;;;;1.60;1.50;;;27.80;99.90;;;;;;5048688;28;20687;-79
2021/08/15 07:15:24;;;;;;;1.33;0.77;;;27.70;99.90;;;;;;5048491;28;20172;-77
2021/08/15 07:17:50;;;;;;;0.77;0.77;;;27.80;99.90;;;;;;5049989;28;20153;-77
2021/08/15 07:20:15;;;;;;;3.17;2.83;;;27.40;99.90;;;;;;5049746;28;20284;-79
2021/08/15 07:22:41;;;;;;;1.20;0.88;;;27.50;99.90;;;;;;5049824;28;20162;-78
2021/08/15 07:25:08;;;;;;;1.15;1.13;;;27.20;99.90;;;;;;5049834;28;20196;-82
2021/08/15 07:27:35;;;;;;;1.55;0.73;;;27.00;99.90;;;;;;5049747;28;20244;-78
2021/08/15 07:30:01;;;;;;;2.03;1.38;;;27.20;99.90;;;;;;5049602;28;20200;-78
2021/08/15 07:32:27;;;;;;;0.80;0.52;;;27.30;99.90;;;;;;5048456;28;20169;-79
2021/08/15 07:34:53;;;;;;;2.22;2.03;;;27.20;99.90;;;;;;5048325;28;20172;-79
2021/08/15 07:37:19;;;;;;;0.68;0.68;;;27.30;99.90;;;;;;5048361;28;20629;-78
2021/08/15 07:39:45;;;;;;;1.75;1.38;;;27.50;99.90;;;;;;5049300;28;20196;-79
2021/08/15 07:42:11;;;;;;;1.42;1.42;;;27.50;99.90;;;;;;5048345;28;20624;-81
2021/08/15 07:44:37;;;;;;;1.50;1.48;;;27.70;99.90;;;;;;5048857;28;20168;-81
2021/08/15 07:47:03;;;;;;;0.55;0.55;;;27.80;99.90;;;;;;5047462;28;20177;-75
2021/08/15 07:49:29;;;;;;;0.98;0.93;;;27.80;99.90;;;;;;5047055;28;20232;-79
2021/08/15 07:51:55;;;;;;;2.33;1.50;;;27.80;99.90;;;;;;5047096;28;20215;-81
2021/08/15 07:54:21;;;;;;;1.60;1.50;;;27.80;99.90;;;;;;5049099;28;20165;-80
2021/08/15 07:56:46;;;;;;;0.60;0.60;;;27.30;99.90;;;;;;5047335;28;20180;-80
2021/08/15 07:59:12;;;;;;;1.15;1.02;;;27.20;99.90;;;;;;5048561;28;20192;-80
2021/08/15 08:01:39;;;;;;;1.88;1.55;;;27.20;99.90;;;;;;5047414;28;20173;-80
2021/08/15 08:04:05;;;;;;;0.40;0.40;;;26.90;99.90;;;;;;5047344;28;20172;-77
2021/08/15 08:06:31;;;;;;;0.70;0.70;;;27.00;99.90;;;;;;5048883;28;20224;-78
2021/08/15 08:08:57;;;;;;;0.63;0.63;;;27.60;99.90;;;;;;5048680;28;20179;-77
2021/08/15 08:11:23;;;;;;;2.28;0.95;;;28.30;99.90;;;;;;5048607;28;20213;-81
2021/08/15 08:13:50;;;;;;;0.82;0.82;;;29.00;99.90;;;;;;5047362;28;20189;-80
2021/08/15 08:16:16;;;;;;;1.48;1.38;;;29.40;99.90;;;;;;5047452;28;20216;-81
2021/08/15 08:18:44;;;;;;;0.82;0.82;;;30.00;99.90;;;;;;5048843;28;20161;-80
2021/08/15 08:21:10;;;;;;;0.43;0.38;;;31.40;99.90;;;;;;5049058;28;20236;-80
2021/08/15 08:23:36;;;;;;;0.40;0.40;;;31.90;99.90;;;;;;5052113;28;20184;-81
2021/08/15 08:26:02;;;;;;;0.52;0.52;;;32.10;99.90;;;;;;5047602;28;20168;-78
2021/08/15 08:28:28;;;;;;;2.47;0.70;;;31.50;99.90;;;;;;5048846;28;20168;-77
2021/08/15 08:30:55;;;;;;;2.03;1.83;;;31.70;99.90;;;;;;5048717;28;20212;-75
2021/08/15 08:33:21;;;;;;;0.60;0.57;;;32.10;99.90;;;;;;5048859;28;20153;-74
2021/08/15 08:35:47;;;;;;;0.38;0.30;;;31.00;99.90;;;;;;5048742;28;20180;-73
2021/08/15 08:38:13;;;;;;;0.90;0.80;;;29.90;99.90;;;;;;5047191;28;20180;-74
2021/08/15 08:40:41;;;;;;;4.43;2.00;;;30.10;99.90;;;;;;5050092;28;20606;-77
2021/08/15 08:43:06;;;;;;;1.27;1.00;;;31.10;99.90;;;;;;5055853;28;20188;-75
2021/08/15 08:45:39;;;;;;;0.60;0.60;;;30.70;99.90;;;;;;5061860;28;20504;-74
2021/08/15 08:48:06;;;;;;;1.08;0.98;;;30.90;99.90;;;;;;5068194;28;20227;-75
2021/08/15 08:50:32;;;;;;;0.70;0.70;;;30.40;99.90;;;;;;5047584;28;20212;-76
2021/08/15 08:52:59;;;;;;;0.43;0.38;;;30.40;99.90;;;;;;5047832;28;20179;-79
2021/08/15 08:55:25;;;;;;;1.35;1.25;;;29.70;99.90;;;;;;5046964;28;20240;-75
2021/08/15 08:57:51;;;;;;;0.90;0.90;;;30.90;99.90;;;;;;5057304;28;20171;-75
2021/08/15 09:00:18;;;;;;;1.08;0.98;;;32.10;99.90;;;;;;5068295;28;20211;-75
2021/08/15 09:02:45;;;;;;;0.73;0.73;;;32.40;99.90;;;;;;5068402;28;20187;-75
2021/08/15 09:05:11;;;;;;;0.80;0.80;;;32.40;99.90;;;;;;5067002;28;20282;-75
2021/08/15 09:07:41;;;;;;;1.73;0.73;;;32.50;99.90;;;;;;5067030;28;20172;-76
2021/08/15 09:10:10;;;;;;;4.10;2.05;;;32.90;99.90;;;;;;5066581;28;20199;-76
2021/08/15 09:12:43;;;;;;;0.68;0.68;;;32.20;99.90;;;;;;5066645;28;20164;-76
2021/08/15 09:15:18;;;;;;;0.52;0.52;;;33.50;99.90;;;;;;5057784;28;20169;-76
2021/08/15 09:17:45;;;;;;;4.40;0.98;;;33.70;99.90;;;;;;5046890;28;20187;-76
2021/08/15 09:20:13;;;;;;;1.92;1.65;;;33.10;99.90;;;;;;5046708;28;20211;-74
2021/08/15 09:22:40;;;;;;;2.47;1.10;;;31.40;99.90;;;;;;5048018;28;20224;-74
2021/08/15 09:25:10;;;;;;;3.83;1.90;;;31.70;99.90;;;;;;5047970;28;20167;-74
2021/08/15 09:27:37;;;;;;;1.88;1.48;;;32.80;99.90;;;;;;5047935;28;20174;-74
2021/08/15 09:30:09;;;;;;;2.88;1.73;;;34.00;99.90;;;;;;5045935;28;20685;-74
2021/08/15 09:32:37;;;;;;;1.35;1.25;;;34.20;99.90;;;;;;5047918;28;20221;-74
2021/08/15 09:35:04;;;;;;;1.77;0.95;;;34.40;99.90;;;;;;5046599;28;20165;-74
2021/08/15 09:37:34;;;;;;;1.35;1.25;;;34.20;99.90;;;;;;5047844;28;20153;-74
2021/08/15 09:40:19;;;;;;;2.53;1.20;;;34.10;99.90;;;;;;5046475;28;20271;-74
2021/08/15 09:42:45;;;;;;;2.72;1.33;;;33.10;99.90;;;;;;5051727;28;20180;-74
2021/08/15 09:45:16;;;;;;;1.88;1.42;;;31.70;99.90;;;;;;5047792;28;20161;-73
2021/08/15 09:47:43;;;;;;;7.90;1.00;;;32.30;99.90;;;;;;5045763;28;20243;-74
2021/08/15 09:50:22;;;;;;;3.63;2.45;;;33.70;99.90;;;;;;5062589;28;20350;-74
2021/08/15 09:52:48;;;;;;;3.25;2.38;;;34.50;99.90;;;;;;5066559;28;20621;-74
2021/08/15 09:55:14;;;;;;;1.45;1.23;;;32.60;99.90;;;;;;5067652;28;20155;-74
2021/08/15 09:57:41;;;;;;;1.55;1.33;;;32.90;99.90;;;;;;5067968;28;20165;-75
2021/08/15 10:00:27;;;;;;;0.63;0.63;;;33.90;99.90;;;;;;5067874;28;20230;-74
2021/08/15 10:02:53;;;;;;;1.08;1.08;;;34.00;99.90;;;;;;5066353;28;20176;-74
2021/08/15 10:05:20;;;;;;;2.42;1.75;;;33.70;99.90;;;;;;5071732;28;20271;-74
2021/08/15 10:07:46;;;;;;;1.60;0.93;;;33.30;99.90;;;;;;5070294;28;20199;-74
2021/08/15 10:10:14;;;;;;;2.75;0.82;;;33.20;99.90;;;;;;5071514;28;20196;-73
2021/08/15 10:12:40;;;;;;;9.82;3.58;;;33.30;99.90;;;;;;5071645;28;20157;-74
2021/08/15 10:15:11;;;;;;;1.58;1.05;;;33.30;99.90;;;;;;5066515;28;20176;-73
2021/08/15 10:17:38;;;;;;;0.73;0.73;;;34.20;99.90;;;;;;5051363;28;20179;-73
2021/08/15 10:20:09;;;;;;;1.20;1.10;;;34.80;99.90;;;;;;5051493;28;20196;-74
2021/08/15 10:22:39;;;;;;;1.42;1.33;;;34.90;99.90;;;;;;5049878;28;20185;-73
2021/08/15 10:25:07;;;;;;;6.05;1.75;;;35.50;99.90;;;;;;5053230;28;20302;-73
2021/08/15 10:27:39;;;;;;;1.40;1.30;;;36.10;99.90;;;;;;5070662;28;20203;-75
2021/08/15 10:30:14;;;;;;;1.77;1.67;;;35.40;99.90;;;;;;5069775;28;20270;-74
2021/08/15 10:32:55;;;;;;;1.70;1.20;;;36.70;99.90;;;;;;5071199;28;20148;-76
2021/08/15 10:35:23;;;;;;;1.33;1.23;;;36.90;99.90;;;;;;5069748;28;20164;-74
2021/08/15 10:37:57;;;;;;;2.40;1.58;;;34.40;99.90;;;;;;5050586;28;20200;-74
2021/08/15 10:40:39;;;;;;;2.17;1.33;;;32.60;99.90;;;;;;5050963;28;20180;-74
2021/08/15 10:43:07;;;;;;;1.70;1.60;;;33.80;99.90;;;;;;5065883;28;20247;-73
2021/08/15 10:45:33;;;;;;;2.22;1.90;;;33.90;99.90;;;;;;5070432;28;20172;-73
2021/08/15 10:48:04;;;;;;;2.05;1.23;;;34.30;99.90;;;;;;5070244;28;20229;-74
2021/08/15 10:50:54;;;;;;;1.80;1.65;;;35.60;99.90;;;;;;5059074;28;20253;-74
2021/08/15 10:53:27;;;;;;;3.75;2.05;;;34.00;99.90;;;;;;5051734;28;20169;-74
2021/08/15 10:55:57;;;;;;;3.55;3.17;;;32.60;99.90;;;;;;5070479;28;20168;-74
2021/08/15 10:58:36;;;;;;;2.65;2.38;;;33.40;99.90;;;;;;5070364;28;20187;-74
2021/08/15 11:01:07;;;;;;;2.33;1.95;;;34.40;99.90;;;;;;5068842;28;20175;-73
2021/08/15 11:03:34;;;;;;;2.58;2.28;;;35.30;99.90;;;;;;5068923;28;20168;-73
2021/08/15 11:06:03;;;;;;;2.13;1.92;;;35.50;99.90;;;;;;5070198;28;20524;-73
2021/08/15 11:08:32;;;;;;;2.28;1.63;;;35.60;99.90;;;;;;5068781;28;20203;-73
2021/08/15 11:11:09;;;;;;;3.65;1.63;;;36.00;99.90;;;;;;5067964;28;20260;-73
2021/08/15 11:13:36;;;;;;;4.90;2.13;;;35.20;99.90;;;;;;5069288;28;20171;-73
2021/08/15 11:16:27;;;;;;;1.92;1.33;;;36.20;99.90;;;;;;5068177;28;20190;-74
2021/08/15 11:19:08;;;;;;;1.70;1.60;;;36.20;99.90;;;;;;5064900;28;20177;-74
2021/08/15 11:22:11;;;;;;;4.47;1.90;;;35.30;99.90;;;;;;5050493;28;20180;-74
2021/08/15 11:24:43;;;;;;;2.60;1.30;;;35.70;99.90;;;;;;5068845;28;20160;-74
2021/08/15 11:27:30;;;;;;;1.73;1.63;;;36.20;99.90;;;;;;5068401;28;20172;-72
2021/08/15 11:30:20;;;;;;;1.63;1.50;;;34.80;99.90;;;;;;5067972;28;20211;-72
2021/08/15 11:32:54;;;;;;;1.95;1.75;;;34.30;99.90;;;;;;5068250;28;20169;-72
2021/08/15 11:35:20;;;;;;;1.80;1.65;;;34.30;99.90;;;;;;5068353;28;20159;-74
2021/08/15 11:37:52;;;;;;;1.63;1.40;;;34.40;99.90;;;;;;5069547;28;20149;-72
2021/08/15 11:40:23;;;;;;;3.50;1.98;;;35.10;99.90;;;;;;5068220;28;20649;-72
2021/08/15 11:43:05;;;;;;;2.95;1.83;;;35.10;99.90;;;;;;5061887;28;20215;-72
2021/08/15 11:45:34;;;;;;;1.95;1.63;;;35.40;99.90;;;;;;5049420;28;20163;-72
2021/08/15 11:48:27;;;;;;;3.95;1.52;;;35.90;99.90;;;;;;5067725;28;20224;-72
2021/08/15 11:50:56;;;;;;;1.90;1.42;;;36.80;99.90;;;;;;5049002;28;20223;-75
2021/08/15 11:53:27;;;;;;;1.98;1.60;;;36.90;99.90;;;;;;5051646;28;20221;-74
2021/08/15 11:55:54;;;;;;;2.17;1.95;;;36.40;99.90;;;;;;5069051;28;20156;-73
2021/08/15 11:58:20;;;;;;;2.85;1.98;;;36.00;99.90;;;;;;5069167;28;20210;-74
2021/08/15 12:00:47;;;;;;;4.55;1.50;;;35.40;99.90;;;;;;5068725;28;20195;-74
2021/08/15 12:03:22;;;;;;;2.60;1.63;;;34.60;99.90;;;;;;5067765;28;20176;-74
2021/08/15 12:05:56;;;;;;;2.00;1.80;;;33.50;99.90;;;;;;5067944;28;20182;-74
2021/08/15 12:08:32;;;;;;;2.40;2.03;;;34.00;99.90;;;;;;5067883;28;20242;-74
2021/08/15 12:10:58;;;;;;;4.28;2.00;;;34.10;99.90;;;;;;5069116;28;20699;-74
2021/08/15 12:13:33;;;;;;;3.38;2.05;;;32.90;99.90;;;;;;5068030;28;20229;-73
2021/08/15 12:15:59;;;;;;;1.65;1.55;;;32.30;99.90;;;;;;5069199;28;20155;-74
2021/08/15 12:18:52;;;;;;;1.65;1.55;;;32.00;99.90;;;;;;5069057;28;20220;-73
2021/08/15 12:21:34;;;;;;;2.45;2.25;;;31.60;99.90;;;;;;5067516;28;20378;-73
2021/08/15 12:24:11;;;;;;;2.13;1.92;;;31.30;99.90;;;;;;5068945;28;20166;-74
2021/08/15 12:26:40;;;;;;;2.88;1.75;;;31.00;99.90;;;;;;5066907;28;20199;-73
2021/08/15 12:29:18;;;;;;;1.80;1.70;;;30.90;99.90;;;;;;5067234;28;20217;-74
2021/08/15 12:31:44;;;;;;;0.98;0.90;;;30.50;99.90;;;;;;5068793;28;20202;-74
2021/08/15 12:34:12;;;;;;;2.30;1.92;;;30.40;99.90;;;;;;5068952;28;20227;-74
2021/08/15 12:36:52;;;;;;;9.00;1.67;;;30.50;99.90;;;;;;5068775;28;20156;-73
2021/08/15 12:39:27;;;;;;;9.75;1.27;;;30.50;99.90;;;;;;5068698;28;20156;-73
2021/08/15 12:41:58;;;;;;;1.85;1.75;;;30.20;99.90;;;;;;5068598;28;20224;-73
2021/08/15 12:44:27;;;;;;;2.10;1.85;;;30.20;99.90;;;;;;5068607;28;20156;-73
2021/08/15 12:47:04;;;;;;;4.97;2.22;;;30.20;99.90;;;;;;5065228;28;20201;-73
2021/08/15 12:49:46;;;;;;;3.97;1.92;;;30.20;99.90;;;;;;5059856;28;20228;-74
2021/08/15 12:52:18;;;;;;;1.95;1.80;;;30.20;99.90;;;;;;5055094;28;20250;-74
2021/08/15 12:55:05;;;;;;;1.63;1.52;;;30.20;99.90;;;;;;5048364;28;20641;-74